Time;durP1;ratioP1;P1;durP2;ratioP2;P2;SDS_P1;SDS_P2;PMS_P1;PMS_P2;Temp;Humidity;BMP_temperature;BMP_pressure;BME280_temperature;BME280_humidity;BME280_pressure;Samples;Min_cycle;Max_cycle;Signal;HPM_P1;HPM_P2
2023/09/09 00:02:09;;;;;;;15.50;12.68;;;13.10;99.90;;;;;;5029989;28;20018;-76
2023/09/09 00:04:35;;;;;;;14.98;12.65;;;13.10;99.90;;;;;;5030900;28;20026;-76
2023/09/09 00:07:02;;;;;;;18.48;12.85;;;13.00;99.90;;;;;;5025006;28;20071;-76
2023/09/09 00:09:29;;;;;;;15.65;12.13;;;13.00;99.90;;;;;;5029656;28;20037;-77
2023/09/09 00:11:55;;;;;;;19.40;13.85;;;13.10;99.90;;;;;;5042786;28;20021;-76
2023/09/09 00:14:21;;;;;;;15.90;12.48;;;13.00;99.90;;;;;;5049569;28;20025;-76
2023/09/09 00:16:46;;;;;;;18.13;12.80;;;13.00;99.90;;;;;;5037609;28;20072;-76
2023/09/09 00:19:12;;;;;;;16.88;13.02;;;13.00;99.90;;;;;;5042739;28;20360;-77
2023/09/09 00:21:38;;;;;;;15.10;12.55;;;13.10;99.90;;;;;;5043407;28;20053;-76
2023/09/09 00:24:04;;;;;;;13.85;10.93;;;13.00;99.90;;;;;;5027539;28;20045;-77
2023/09/09 00:26:31;;;;;;;14.68;12.50;;;13.10;99.90;;;;;;5029340;28;20073;-76
2023/09/09 00:28:57;;;;;;;15.15;12.52;;;13.00;99.90;;;;;;5030766;28;20036;-76
2023/09/09 00:31:23;;;;;;;14.32;12.65;;;13.00;99.90;;;;;;5029072;28;20022;-76
2023/09/09 00:33:49;;;;;;;19.58;12.18;;;13.00;99.90;;;;;;5031540;28;20070;-76
2023/09/09 00:36:15;;;;;;;19.33;12.18;;;12.90;99.90;;;;;;5030656;28;20090;-76
2023/09/09 00:38:41;;;;;;;15.98;13.00;;;12.90;99.90;;;;;;5030820;28;20064;-76
2023/09/09 00:41:15;;;;;;;16.08;12.50;;;12.90;99.90;;;;;;5030774;28;20518;-76
2023/09/09 00:43:41;;;;;;;16.75;12.15;;;12.90;99.90;;;;;;5016526;28;20017;-76
2023/09/09 00:46:08;;;;;;;14.93;12.43;;;12.90;99.90;;;;;;5030505;28;20028;-76
2023/09/09 00:48:34;;;;;;;15.57;11.10;;;12.90;99.90;;;;;;5029068;28;20513;-77
2023/09/09 00:51:00;;;;;;;16.33;11.98;;;12.90;99.90;;;;;;5030524;28;20022;-76
2023/09/09 00:53:26;;;;;;;14.27;12.10;;;12.90;99.90;;;;;;5029632;28;20029;-77
2023/09/09 00:55:53;;;;;;;15.10;11.32;;;12.80;99.90;;;;;;5030995;28;20052;-76
2023/09/09 00:58:18;;;;;;;12.82;11.25;;;12.80;99.90;;;;;;5030333;28;20486;-76
2023/09/09 01:00:44;;;;;;;17.95;13.30;;;12.80;99.90;;;;;;5031073;28;20021;-76
2023/09/09 01:03:10;;;;;;;13.15;11.85;;;12.80;99.90;;;;;;5028942;28;20020;-76
2023/09/09 01:05:38;;;;;;;14.63;11.25;;;12.80;99.90;;;;;;5030996;28;20479;-76
2023/09/09 01:08:05;;;;;;;12.98;11.55;;;12.80;99.90;;;;;;5028922;28;20025;-76
2023/09/09 01:10:30;;;;;;;14.77;11.82;;;12.70;99.90;;;;;;5029167;28;20043;-76
2023/09/09 01:12:56;;;;;;;16.60;12.77;;;12.80;99.90;;;;;;5028016;28;20478;-77
2023/09/09 01:15:22;;;;;;;14.20;11.77;;;12.70;99.90;;;;;;5029846;28;20026;-77
2023/09/09 01:17:49;;;;;;;13.55;11.30;;;12.70;99.90;;;;;;5028898;28;20050;-76
2023/09/09 01:20:19;;;;;;;13.50;12.13;;;12.70;99.90;;;;;;5029312;28;20057;-76
2023/09/09 01:22:48;;;;;;;15.88;11.98;;;12.70;99.90;;;;;;5029248;28;20379;-76
2023/09/09 01:25:14;;;;;;;14.07;12.40;;;12.70;99.90;;;;;;5028402;28;20029;-76
2023/09/09 01:27:41;;;;;;;17.90;13.32;;;12.60;99.90;;;;;;5029749;28;20547;-76
2023/09/09 01:30:08;;;;;;;13.00;11.30;;;12.60;99.90;;;;;;5030123;28;20431;-77
2023/09/09 01:32:34;;;;;;;19.73;12.13;;;12.60;99.90;;;;;;5029239;28;20034;-76
2023/09/09 01:35:03;;;;;;;15.55;11.88;;;12.60;99.90;;;;;;5030348;28;20526;-77
2023/09/09 01:37:29;;;;;;;15.30;12.48;;;12.60;99.90;;;;;;5028836;28;20042;-77
2023/09/09 01:39:56;;;;;;;13.20;10.90;;;12.60;99.90;;;;;;5028601;28;20058;-76
2023/09/09 01:42:21;;;;;;;14.18;12.30;;;12.60;99.90;;;;;;5024111;28;20025;-76
2023/09/09 01:44:47;;;;;;;16.90;12.93;;;12.60;99.90;;;;;;5028602;28;20017;-76
2023/09/09 01:47:13;;;;;;;15.05;12.55;;;12.60;99.90;;;;;;5029731;28;20104;-77
2023/09/09 01:49:41;;;;;;;14.32;12.50;;;12.60;99.90;;;;;;5028852;28;20073;-76
2023/09/09 01:52:06;;;;;;;16.08;12.63;;;12.50;99.90;;;;;;5029895;28;20020;-75
2023/09/09 01:54:32;;;;;;;14.55;12.60;;;12.50;99.90;;;;;;5030114;28;20486;-76
2023/09/09 01:56:57;;;;;;;16.77;13.10;;;12.50;99.90;;;;;;5029615;28;20057;-76
2023/09/09 01:59:23;;;;;;;16.17;12.00;;;12.50;99.90;;;;;;5028579;28;20025;-76
2023/09/09 02:01:49;;;;;;;15.88;12.25;;;12.50;99.90;;;;;;5030087;28;20022;-76
2023/09/09 02:04:14;;;;;;;15.65;12.48;;;12.50;99.90;;;;;;5024518;28;20029;-76
2023/09/09 02:06:40;;;;;;;18.70;13.23;;;12.40;99.90;;;;;;5027177;28;20057;-77
2023/09/09 02:09:06;;;;;;;16.48;12.57;;;12.50;99.90;;;;;;5017331;28;20468;-76
2023/09/09 02:11:31;;;;;;;13.95;11.88;;;12.50;99.90;;;;;;5040536;28;20036;-76
2023/09/09 02:13:57;;;;;;;14.77;12.45;;;12.40;99.90;;;;;;5015905;28;20022;-76
2023/09/09 02:16:23;;;;;;;15.02;11.85;;;12.40;99.90;;;;;;5029147;28;20033;-76
2023/09/09 02:18:48;;;;;;;15.10;11.90;;;12.40;99.90;;;;;;5029297;28;20069;-76
2023/09/09 02:21:14;;;;;;;13.65;11.93;;;12.30;99.90;;;;;;5019227;28;20014;-76
2023/09/09 02:23:41;;;;;;;13.15;11.45;;;12.30;99.90;;;;;;5028731;28;20087;-76
2023/09/09 02:26:08;;;;;;;15.73;12.13;;;12.30;99.90;;;;;;5031402;28;20029;-76
2023/09/09 02:28:34;;;;;;;14.38;11.93;;;12.30;99.90;;;;;;5042071;28;20065;-77
2023/09/09 02:31:00;;;;;;;16.83;13.20;;;12.30;99.90;;;;;;5052183;28;20417;-76
2023/09/09 02:33:26;;;;;;;15.00;11.90;;;12.30;99.90;;;;;;5034134;28;20108;-76
2023/09/09 02:35:52;;;;;;;13.55;11.52;;;12.30;99.90;;;;;;5032630;28;20125;-76
2023/09/09 02:38:17;;;;;;;15.30;11.73;;;12.30;99.90;;;;;;5031961;28;20152;-76
2023/09/09 02:40:43;;;;;;;16.33;11.80;;;12.20;99.90;;;;;;5032464;28;20451;-76
2023/09/09 02:43:10;;;;;;;14.43;12.65;;;12.20;99.90;;;;;;5031250;28;20049;-76
2023/09/09 02:45:37;;;;;;;14.32;12.38;;;12.10;99.90;;;;;;5030792;28;20018;-76
2023/09/09 02:48:03;;;;;;;14.60;13.10;;;12.10;99.90;;;;;;5031093;28;20112;-76
2023/09/09 02:50:29;;;;;;;15.35;12.50;;;12.10;99.90;;;;;;5032327;28;20018;-76
2023/09/09 02:52:55;;;;;;;15.50;12.32;;;12.10;99.90;;;;;;5032331;28;20078;-76
2023/09/09 02:55:20;;;;;;;15.02;12.60;;;12.10;99.90;;;;;;5030950;28;20018;-76
2023/09/09 02:57:49;;;;;;;14.45;12.27;;;12.10;99.90;;;;;;5026708;28;20503;-77
2023/09/09 03:00:15;;;;;;;17.20;13.10;;;12.00;99.90;;;;;;5029108;28;20045;-77
2023/09/09 03:02:42;;;;;;;16.63;13.05;;;12.10;99.90;;;;;;5032100;28;20013;-77
2023/09/09 03:05:08;;;;;;;16.05;12.48;;;12.10;99.90;;;;;;5030554;28;20021;-77
2023/09/09 03:07:34;;;;;;;15.52;13.25;;;12.10;99.90;;;;;;5030863;28;20056;-77
2023/09/09 03:10:00;;;;;;;14.05;12.02;;;12.00;99.90;;;;;;5031885;28;20046;-77
2023/09/09 03:12:26;;;;;;;17.38;12.27;;;12.00;99.90;;;;;;5028425;28;20017;-77
2023/09/09 03:14:52;;;;;;;17.92;12.27;;;12.00;99.90;;;;;;5030354;28;20394;-77
2023/09/09 03:17:18;;;;;;;11.98;10.77;;;12.00;99.90;;;;;;5030520;28;20078;-76
2023/09/09 03:19:44;;;;;;;15.30;12.40;;;12.00;99.90;;;;;;5033440;28;20125;-77
2023/09/09 03:22:09;;;;;;;18.00;13.50;;;12.00;99.90;;;;;;5032335;28;20037;-77
2023/09/09 03:24:35;;;;;;;17.33;14.63;;;12.00;99.90;;;;;;5032227;28;20114;-77
2023/09/09 03:27:01;;;;;;;16.90;12.80;;;12.00;99.90;;;;;;5033168;28;20104;-76
2023/09/09 03:29:26;;;;;;;16.20;12.80;;;12.00;99.90;;;;;;5032095;28;20024;-76
2023/09/09 03:31:52;;;;;;;18.60;13.63;;;11.90;99.90;;;;;;5031750;28;20018;-76
2023/09/09 03:34:18;;;;;;;16.40;12.25;;;11.90;99.90;;;;;;5030353;28;20395;-77
2023/09/09 03:36:44;;;;;;;14.80;11.63;;;11.90;99.90;;;;;;5030705;28;20065;-77
2023/09/09 03:39:10;;;;;;;18.33;10.95;;;11.80;99.90;;;;;;5031375;28;20021;-77
2023/09/09 03:41:37;;;;;;;15.80;11.65;;;11.80;99.90;;;;;;5031581;28;20021;-77
2023/09/09 03:44:03;;;;;;;14.15;12.07;;;11.80;99.90;;;;;;5031696;28;20022;-77
2023/09/09 03:46:29;;;;;;;14.63;11.30;;;11.70;99.90;;;;;;5033049;28;20034;-77
2023/09/09 03:48:54;;;;;;;17.02;11.48;;;11.70;99.90;;;;;;5031037;28;20057;-77
2023/09/09 03:51:20;;;;;;;20.17;13.27;;;11.70;99.90;;;;;;5030045;28;20406;-77
2023/09/09 03:53:46;;;;;;;15.30;12.18;;;11.70;99.90;;;;;;5031235;28;20475;-77
2023/09/09 03:56:12;;;;;;;15.70;12.32;;;11.70;99.90;;;;;;5030229;28;20042;-77
2023/09/09 03:58:37;;;;;;;16.15;12.80;;;11.70;99.90;;;;;;5030378;28;20059;-76
2023/09/09 04:01:07;;;;;;;13.93;12.55;;;11.70;99.90;;;;;;5025766;28;20107;-76
2023/09/09 04:03:34;;;;;;;13.88;12.00;;;11.70;99.90;;;;;;5038534;28;20022;-77
2023/09/09 04:06:04;;;;;;;14.75;12.10;;;11.70;99.90;;;;;;5021168;28;20384;-76
2023/09/09 04:08:30;;;;;;;17.17;12.82;;;11.70;99.90;;;;;;5032238;28;20527;-77
2023/09/09 04:10:56;;;;;;;15.18;12.27;;;11.70;99.90;;;;;;5024211;28;20034;-77
2023/09/09 04:13:22;;;;;;;15.60;12.95;;;11.70;99.90;;;;;;5017823;28;20075;-77
2023/09/09 04:15:47;;;;;;;16.20;11.82;;;11.70;99.90;;;;;;5013813;28;20035;-77
2023/09/09 04:18:13;;;;;;;17.33;12.38;;;11.70;99.90;;;;;;5016513;28;20511;-77
2023/09/09 04:20:39;;;;;;;18.42;12.00;;;11.70;99.90;;;;;;5013172;28;20026;-77
2023/09/09 04:23:05;;;;;;;13.93;12.32;;;11.70;99.90;;;;;;5026147;28;20073;-77
2023/09/09 04:25:31;;;;;;;21.17;12.02;;;11.60;99.90;;;;;;5020667;28;20029;-77
2023/09/09 04:27:57;;;;;;;23.13;13.27;;;11.70;99.90;;;;;;5030147;28;20040;-77
2023/09/09 04:30:22;;;;;;;19.25;12.50;;;11.70;99.90;;;;;;5029992;28;20029;-76
2023/09/09 04:32:48;;;;;;;19.45;12.55;;;11.70;99.90;;;;;;5031444;28;20398;-77
2023/09/09 04:35:14;;;;;;;14.88;11.93;;;11.70;99.90;;;;;;5036992;28;20030;-77
2023/09/09 04:37:39;;;;;;;16.35;12.73;;;11.70;99.90;;;;;;5033039;28;20041;-76
2023/09/09 04:40:06;;;;;;;15.60;12.95;;;11.70;99.90;;;;;;5033373;28;20128;-76
2023/09/09 04:42:35;;;;;;;16.52;12.85;;;11.80;99.90;;;;;;5037798;28;20028;-76
2023/09/09 04:45:01;;;;;;;16.10;12.30;;;11.70;99.90;;;;;;5023434;28;20018;-77
2023/09/09 04:47:26;;;;;;;13.98;12.43;;;11.80;99.90;;;;;;5032524;28;20029;-77
2023/09/09 04:49:52;;;;;;;18.25;13.75;;;11.80;99.90;;;;;;5030134;28;20402;-77
2023/09/09 04:52:18;;;;;;;18.20;13.27;;;11.90;99.90;;;;;;5036171;28;20076;-76
2023/09/09 04:54:44;;;;;;;17.75;13.32;;;12.00;99.90;;;;;;5025020;28;20097;-77
2023/09/09 04:57:09;;;;;;;19.33;14.57;;;12.10;99.90;;;;;;5024366;28;20104;-76
2023/09/09 04:59:35;;;;;;;19.10;14.27;;;12.20;99.90;;;;;;5020033;28;20041;-77
2023/09/09 05:02:00;;;;;;;18.10;14.27;;;12.30;99.90;;;;;;5026873;28;20432;-77
2023/09/09 05:04:26;;;;;;;15.45;12.85;;;12.40;99.90;;;;;;5022983;28;20022;-77
2023/09/09 05:06:53;;;;;;;19.67;13.95;;;12.40;99.90;;;;;;5030284;28;20017;-77
2023/09/09 05:09:19;;;;;;;16.52;13.50;;;12.50;99.90;;;;;;5028174;28;20025;-77
2023/09/09 05:11:45;;;;;;;15.25;12.23;;;12.60;99.90;;;;;;5018894;28;20037;-76
2023/09/09 05:14:11;;;;;;;17.05;13.98;;;12.70;99.90;;;;;;5020009;28;20026;-76
2023/09/09 05:16:37;;;;;;;16.50;12.80;;;12.80;99.90;;;;;;5026209;28;20025;-77
2023/09/09 05:19:03;;;;;;;14.80;12.52;;;12.90;99.90;;;;;;5025445;28;20041;-77
2023/09/09 05:21:28;;;;;;;16.65;13.68;;;13.10;99.90;;;;;;5030389;28;20039;-78
2023/09/09 05:23:54;;;;;;;17.88;13.77;;;13.20;99.90;;;;;;5035045;28;20433;-77
2023/09/09 05:26:20;;;;;;;18.25;13.98;;;13.40;99.90;;;;;;5022010;28;20069;-77
2023/09/09 05:28:46;;;;;;;20.10;15.20;;;13.50;99.90;;;;;;5028298;28;20431;-78
2023/09/09 05:31:13;;;;;;;19.63;13.90;;;13.70;99.90;;;;;;5041075;28;20101;-78
2023/09/09 05:33:39;;;;;;;16.67;12.88;;;13.80;99.90;;;;;;5027964;28;20075;-78
2023/09/09 05:36:05;;;;;;;17.77;12.73;;;14.00;99.90;;;;;;5034494;28;20049;-78
2023/09/09 05:38:31;;;;;;;12.93;11.52;;;14.10;99.90;;;;;;5032479;28;20058;-78
2023/09/09 05:40:56;;;;;;;14.73;10.75;;;14.30;99.90;;;;;;5021569;28;20017;-78
2023/09/09 05:43:22;;;;;;;11.40;9.95;;;14.50;99.90;;;;;;5033813;28;20113;-78
2023/09/09 05:45:48;;;;;;;12.98;10.55;;;14.60;99.90;;;;;;5030664;28;20025;-78
2023/09/09 05:48:13;;;;;;;11.90;10.07;;;14.80;99.90;;;;;;5033875;28;20394;-78
2023/09/09 05:50:39;;;;;;;17.77;10.65;;;15.00;99.90;;;;;;5031564;28;20111;-77
2023/09/09 05:53:05;;;;;;;11.25;10.13;;;15.20;99.90;;;;;;5032839;28;20025;-78
2023/09/09 05:55:31;;;;;;;15.43;10.90;;;15.40;99.90;;;;;;5029611;28;20047;-78
2023/09/09 05:57:56;;;;;;;13.30;9.82;;;15.60;99.90;;;;;;5029443;28;20425;-78
2023/09/09 06:00:22;;;;;;;19.90;13.52;;;15.80;99.90;;;;;;5019734;28;20086;-78
2023/09/09 06:02:48;;;;;;;17.25;13.30;;;16.00;99.90;;;;;;5025538;28;20479;-77
2023/09/09 06:05:16;;;;;;;17.70;13.93;;;16.30;99.90;;;;;;5041524;28;20395;-78
2023/09/09 06:07:44;;;;;;;19.20;13.88;;;16.50;99.90;;;;;;5020484;28;20034;-79
2023/09/09 06:10:10;;;;;;;17.23;13.40;;;16.80;99.90;;;;;;5036530;28;20492;-79
2023/09/09 06:12:35;;;;;;;15.25;13.30;;;17.20;99.90;;;;;;5028684;28;20026;-81
2023/09/09 06:15:01;;;;;;;17.52;11.88;;;17.50;99.90;;;;;;5027959;28;20368;-79
2023/09/09 06:17:26;;;;;;;16.08;12.50;;;17.80;99.90;;;;;;5020850;28;20025;-79
2023/09/09 06:19:52;;;;;;;17.15;12.00;;;18.10;99.90;;;;;;5038546;28;20040;-79
2023/09/09 06:22:18;;;;;;;13.60;11.02;;;18.40;99.90;;;;;;5029610;28;20080;-79
2023/09/09 06:24:44;;;;;;;15.90;11.70;;;18.60;99.90;;;;;;5026057;28;20034;-79
2023/09/09 06:27:09;;;;;;;14.13;10.77;;;18.80;99.90;;;;;;5030719;28;20531;-79
2023/09/09 06:29:36;;;;;;;17.98;12.07;;;19.00;99.90;;;;;;5029285;28;20022;-79
2023/09/09 06:32:03;;;;;;;15.27;11.77;;;19.20;99.90;;;;;;5040325;28;20018;-79
2023/09/09 06:34:29;;;;;;;19.73;12.40;;;19.40;99.90;;;;;;5034573;28;20382;-79
2023/09/09 06:36:54;;;;;;;15.02;11.27;;;19.50;99.90;;;;;;5038821;28;20041;-79
2023/09/09 06:39:20;;;;;;;14.30;10.60;;;19.70;99.90;;;;;;5043086;28;20108;-79
2023/09/09 06:41:46;;;;;;;14.15;10.43;;;19.80;99.90;;;;;;5030128;28;20026;-78
2023/09/09 06:44:11;;;;;;;14.00;10.40;;;19.90;99.90;;;;;;5026882;28;20518;-79
2023/09/09 06:46:37;;;;;;;12.85;10.32;;;20.10;99.90;;;;;;5036168;28;20021;-79
2023/09/09 06:49:03;;;;;;;11.82;9.38;;;20.20;99.90;;;;;;5019291;28;20029;-79
2023/09/09 06:51:29;;;;;;;13.85;10.43;;;20.40;99.90;;;;;;5032236;28;20014;-79
2023/09/09 06:53:54;;;;;;;13.77;9.05;;;20.60;99.90;;;;;;5019907;28;20113;-79
2023/09/09 06:56:20;;;;;;;10.90;9.75;;;20.80;99.90;;;;;;5031906;28;20502;-79
2023/09/09 06:58:46;;;;;;;14.00;10.13;;;20.90;99.90;;;;;;5020872;28;20090;-79
2023/09/09 07:01:11;;;;;;;14.93;9.32;;;20.90;98.70;;;;;;5030049;28;20028;-79
2023/09/09 07:03:37;;;;;;;13.88;9.20;;;20.90;96.20;;;;;;5024903;28;20498;-80
2023/09/09 07:06:03;;;;;;;14.32;9.57;;;21.10;97.80;;;;;;5031356;28;20022;-79
2023/09/09 07:08:29;;;;;;;15.23;10.88;;;21.20;96.80;;;;;;5025664;28;20082;-79
2023/09/09 07:10:56;;;;;;;16.80;10.98;;;21.40;98.70;;;;;;5032469;28;20029;-79
2023/09/09 07:13:23;;;;;;;21.65;10.63;;;21.50;98.00;;;;;;5032154;28;20241;-79
2023/09/09 07:15:52;;;;;;;16.85;9.85;;;21.60;93.30;;;;;;5030682;28;20113;-79
2023/09/09 07:18:19;;;;;;;12.55;9.05;;;21.60;92.50;;;;;;5027832;28;20033;-79
2023/09/09 07:20:46;;;;;;;14.40;9.35;;;21.70;91.40;;;;;;5027179;28;20021;-79
2023/09/09 07:23:15;;;;;;;12.02;9.90;;;21.80;90.20;;;;;;5032269;28;20047;-79
2023/09/09 07:25:47;;;;;;;13.93;9.57;;;21.90;93.60;;;;;;5046367;28;20070;-79
2023/09/09 07:28:12;;;;;;;13.18;9.40;;;22.00;91.20;;;;;;5026422;28;20029;-79
2023/09/09 07:30:39;;;;;;;9.63;8.43;;;22.20;89.10;;;;;;5035556;28;20029;-79
2023/09/09 07:33:04;;;;;;;9.80;8.75;;;22.10;82.80;;;;;;5039494;28;20044;-80
2023/09/09 07:35:30;;;;;;;16.27;9.43;;;22.30;88.30;;;;;;5024061;28;20059;-80
2023/09/09 07:37:56;;;;;;;10.55;9.50;;;22.40;86.20;;;;;;5033058;28;20093;-79
2023/09/09 07:40:22;;;;;;;11.07;8.65;;;22.50;86.20;;;;;;5035409;28;20060;-79
2023/09/09 07:42:50;;;;;;;11.50;9.32;;;22.50;82.60;;;;;;5029162;28;20540;-80
2023/09/09 07:45:16;;;;;;;12.82;9.52;;;22.60;82.90;;;;;;5034653;28;20036;-80
2023/09/09 07:47:42;;;;;;;13.55;9.95;;;22.60;85.10;;;;;;5029300;28;20104;-80
2023/09/09 07:50:08;;;;;;;11.00;9.52;;;22.80;84.20;;;;;;5032141;28;20385;-81
2023/09/09 07:52:34;;;;;;;15.20;10.27;;;22.90;83.00;;;;;;5030202;28;20074;-81
2023/09/09 07:54:59;;;;;;;11.38;9.25;;;23.00;83.30;;;;;;5028028;28;20017;-78
2023/09/09 07:57:25;;;;;;;13.27;8.93;;;23.10;81.50;;;;;;5034647;28;20755;-78
2023/09/09 07:59:51;;;;;;;11.02;9.05;;;23.20;81.70;;;;;;5025837;28;20028;-78
2023/09/09 08:02:16;;;;;;;12.13;9.55;;;23.30;80.30;;;;;;5029230;28;20017;-79
2023/09/09 08:04:42;;;;;;;13.27;9.15;;;23.40;78.00;;;;;;5025097;28;20051;-78
2023/09/09 08:07:08;;;;;;;12.85;7.90;;;23.40;77.70;;;;;;5025963;28;20040;-81
2023/09/09 08:09:34;;;;;;;11.32;7.35;;;23.50;75.50;;;;;;5029261;28;20044;-81
2023/09/09 08:11:59;;;;;;;9.07;7.93;;;23.50;70.90;;;;;;5015532;28;21249;-82
2023/09/09 08:14:25;;;;;;;10.93;8.68;;;23.60;71.90;;;;;;5026099;28;20018;-81
2023/09/09 08:16:51;;;;;;;10.80;8.02;;;23.60;71.50;;;;;;5030148;28;20495;-81
2023/09/09 08:19:17;;;;;;;9.88;6.90;;;23.60;71.20;;;;;;5023328;28;20045;-81
2023/09/09 08:21:43;;;;;;;9.38;7.13;;;23.70;69.80;;;;;;5033854;28;20033;-81
2023/09/09 08:24:08;;;;;;;9.73;6.88;;;23.70;68.70;;;;;;5021873;28;20405;-81
2023/09/09 08:26:34;;;;;;;10.07;7.60;;;23.80;68.50;;;;;;5032372;28;20029;-81
2023/09/09 08:29:00;;;;;;;9.52;6.68;;;23.80;65.10;;;;;;5023391;28;20036;-81
2023/09/09 08:31:25;;;;;;;7.00;6.10;;;23.80;66.10;;;;;;5029237;28;20538;-81
2023/09/09 08:33:51;;;;;;;6.15;5.55;;;23.80;64.70;;;;;;5028374;28;20014;-81
2023/09/09 08:36:17;;;;;;;6.93;6.25;;;23.70;63.80;;;;;;5030047;28;20102;-81
2023/09/09 08:38:42;;;;;;;8.10;6.05;;;23.70;65.00;;;;;;5026371;28;20064;-81
2023/09/09 08:41:35;;;;;;;10.50;6.65;;;23.70;65.10;;;;;;5025763;28;20050;-81
2023/09/09 08:44:03;;;;;;;10.05;6.95;;;23.80;66.00;;;;;;5023471;28;20475;-81
2023/09/09 08:46:29;;;;;;;11.07;6.78;;;23.90;65.60;;;;;;5027462;28;20030;-81
2023/09/09 08:48:57;;;;;;;9.60;6.82;;;24.00;65.50;;;;;;5026337;28;20028;-81
2023/09/09 08:51:30;;;;;;;8.70;6.20;;;24.00;65.50;;;;;;5027641;28;20078;-81
2023/09/09 08:53:56;;;;;;;8.57;7.45;;;24.00;64.80;;;;;;5035966;28;20017;-80
2023/09/09 08:56:23;;;;;;;7.13;6.40;;;24.10;65.20;;;;;;5032065;28;20090;-81
2023/09/09 08:58:49;;;;;;;6.85;6.15;;;24.20;64.20;;;;;;5029478;28;20087;-81
2023/09/09 09:01:15;;;;;;;8.35;6.35;;;24.30;63.80;;;;;;5025812;28;20033;-81
2023/09/09 09:03:42;;;;;;;8.50;6.22;;;24.30;63.00;;;;;;5028978;28;20020;-80
2023/09/09 09:06:09;;;;;;;8.80;6.22;;;24.40;62.80;;;;;;5033789;28;20516;-81
2023/09/09 09:08:35;;;;;;;7.32;5.10;;;24.50;62.90;;;;;;5026658;28;20426;-81
2023/09/09 09:11:03;;;;;;;6.95;5.40;;;24.50;62.00;;;;;;5027505;28;20033;-81
2023/09/09 09:13:33;;;;;;;8.25;6.15;;;24.50;61.20;;;;;;5017073;28;20383;-81
2023/09/09 09:16:00;;;;;;;6.75;6.05;;;24.60;62.20;;;;;;5020889;28;20083;-81
2023/09/09 09:18:25;;;;;;;7.10;6.20;;;24.60;62.30;;;;;;5028973;28;20033;-81
2023/09/09 09:20:52;;;;;;;8.02;6.20;;;24.70;61.10;;;;;;5022486;28;20044;-81
2023/09/09 09:23:19;;;;;;;6.72;6.10;;;24.60;61.00;;;;;;5029280;28;20022;-81
2023/09/09 09:25:47;;;;;;;6.65;5.95;;;24.60;61.00;;;;;;5022746;28;20474;-81
2023/09/09 09:28:14;;;;;;;8.40;6.65;;;24.60;62.00;;;;;;5028390;28;20033;-81
2023/09/09 09:30:40;;;;;;;6.22;5.68;;;24.60;61.20;;;;;;5024150;28;20063;-81
2023/09/09 09:33:05;;;;;;;8.52;6.65;;;24.60;61.70;;;;;;5028169;28;20053;-81
2023/09/09 09:35:32;;;;;;;11.25;6.75;;;24.70;62.40;;;;;;5026223;28;20402;-81
2023/09/09 09:38:06;;;;;;;7.25;6.55;;;24.80;61.60;;;;;;5028783;28;20048;-82
2023/09/09 09:40:32;;;;;;;6.60;5.50;;;24.70;62.60;;;;;;5026925;28;20110;-81
2023/09/09 09:42:58;;;;;;;7.78;6.30;;;24.70;60.70;;;;;;5028702;28;20025;-81
2023/09/09 09:45:27;;;;;;;7.45;6.43;;;24.80;61.00;;;;;;5026064;28;20104;-81
2023/09/09 09:47:53;;;;;;;11.88;7.30;;;24.90;61.40;;;;;;5029410;28;20033;-82
2023/09/09 09:50:33;;;;;;;6.85;6.07;;;25.00;60.50;;;;;;5029533;28;20479;-84
2023/09/09 09:53:00;;;;;;;9.82;6.25;;;25.00;60.80;;;;;;5027292;28;20061;-86
2023/09/09 09:55:27;;;;;;;7.00;5.88;;;24.90;60.30;;;;;;5029441;28;20014;-78
2023/09/09 09:57:55;;;;;;;8.20;6.03;;;24.90;60.50;;;;;;5029274;28;20014;-85
2023/09/09 10:00:21;;;;;;;6.72;6.03;;;25.00;59.30;;;;;;5024818;28;20029;-78
2023/09/09 10:02:52;;;;;;;9.98;6.40;;;25.20;59.10;;;;;;5020846;28;20479;-78
2023/09/09 10:05:20;;;;;;;11.52;6.60;;;25.20;58.90;;;;;;5018383;28;20018;-78
2023/09/09 10:07:51;;;;;;;8.77;5.90;;;25.20;59.30;;;;;;5027388;28;20054;-78
2023/09/09 10:10:21;;;;;;;9.27;6.38;;;25.10;60.50;;;;;;5020517;28;20026;-77
2023/09/09 10:13:25;;;;;;;8.95;6.35;;;25.30;61.40;;;;;;5010847;28;20046;-78
2023/09/09 10:15:53;;;;;;;44.03;36.85;;;25.30;60.80;;;;;;5023290;28;20495;-77
2023/09/09 10:18:20;;;;;;;28.35;22.95;;;25.20;59.50;;;;;;5017272;28;20468;-78
2023/09/09 10:20:46;;;;;;;12.93;11.27;;;25.30;60.20;;;;;;5010233;28;20022;-78
2023/09/09 10:23:13;;;;;;;8.23;6.88;;;25.40;61.00;;;;;;5025276;28;20147;-78
2023/09/09 10:25:42;;;;;;;8.25;6.60;;;25.40;58.20;;;;;;5014453;28;20109;-84
2023/09/09 10:28:09;;;;;;;8.00;6.90;;;25.50;58.60;;;;;;5012649;28;20056;-84
2023/09/09 10:30:35;;;;;;;7.50;6.78;;;25.70;58.70;;;;;;5011579;28;20511;-77
2023/09/09 10:33:06;;;;;;;7.75;6.95;;;25.70;58.50;;;;;;5012608;28;20025;-77
2023/09/09 10:35:33;;;;;;;7.78;6.30;;;25.70;58.60;;;;;;5026284;28;20124;-79
2023/09/09 10:38:02;;;;;;;6.72;5.93;;;25.70;57.80;;;;;;5023963;28;20049;-77
2023/09/09 10:40:28;;;;;;;9.32;7.13;;;25.70;57.60;;;;;;5014243;28;20018;-77
2023/09/09 10:42:54;;;;;;;8.02;6.88;;;25.70;57.50;;;;;;5018765;28;20075;-77
2023/09/09 10:45:25;;;;;;;7.88;6.70;;;25.50;57.20;;;;;;5021334;28;20376;-77
2023/09/09 10:48:03;;;;;;;7.72;6.10;;;25.50;58.80;;;;;;5035125;28;20021;-78
2023/09/09 10:50:52;;;;;;;6.90;6.18;;;25.70;59.60;;;;;;5034535;28;20469;-77
2023/09/09 10:53:23;;;;;;;8.35;6.68;;;25.80;57.10;;;;;;5041589;28;20021;-77
2023/09/09 10:55:54;;;;;;;8.30;7.13;;;25.80;56.70;;;;;;5031002;28;20030;-77
2023/09/09 10:58:21;;;;;;;7.45;6.55;;;25.70;57.80;;;;;;5047292;28;20033;-78
2023/09/09 11:00:48;;;;;;;6.93;6.32;;;25.70;57.50;;;;;;5031296;28;20078;-78
2023/09/09 11:03:20;;;;;;;7.97;6.35;;;25.90;57.10;;;;;;5027286;28;20026;-77
2023/09/09 11:06:02;;;;;;;7.03;6.05;;;25.90;56.50;;;;;;5030955;28;20025;-79
2023/09/09 11:08:35;;;;;;;12.43;6.65;;;25.80;56.30;;;;;;5031842;28;20021;-79
2023/09/09 11:11:08;;;;;;;18.17;7.10;;;25.70;56.80;;;;;;5032042;28;20478;-78
2023/09/09 11:13:49;;;;;;;10.52;7.65;;;25.80;56.10;;;;;;5041208;28;20074;-78
2023/09/09 11:16:27;;;;;;;8.47;6.93;;;25.90;56.90;;;;;;5041371;28;20037;-77
2023/09/09 11:18:53;;;;;;;7.50;6.80;;;25.90;56.50;;;;;;5030631;28;20128;-77
2023/09/09 11:21:22;;;;;;;8.02;6.85;;;26.00;56.70;;;;;;5031274;28;20026;-78
2023/09/09 11:23:50;;;;;;;7.47;6.72;;;25.90;55.40;;;;;;5032122;28;20116;-77
2023/09/09 11:26:16;;;;;;;8.40;6.97;;;26.00;56.10;;;;;;5031779;28;20022;-77
2023/09/09 11:28:45;;;;;;;7.55;6.35;;;26.00;55.70;;;;;;5031943;28;20055;-77
2023/09/09 11:31:14;;;;;;;9.57;6.90;;;26.00;57.10;;;;;;5031494;28;20482;-78
2023/09/09 11:33:40;;;;;;;11.07;7.10;;;26.00;58.60;;;;;;5030125;28;20124;-77
2023/09/09 11:36:06;;;;;;;10.52;7.22;;;26.10;57.60;;;;;;5034370;28;20108;-78
2023/09/09 11:38:32;;;;;;;10.02;7.50;;;26.20;57.00;;;;;;5038980;28;20495;-78
2023/09/09 11:40:58;;;;;;;10.70;7.28;;;26.20;57.10;;;;;;5031489;28;20359;-78
2023/09/09 11:43:24;;;;;;;9.43;6.93;;;26.20;56.10;;;;;;5031633;28;20026;-78
2023/09/09 11:45:51;;;;;;;7.65;6.85;;;26.10;55.30;;;;;;5035394;28;20029;-77
2023/09/09 11:48:17;;;;;;;10.70;7.22;;;26.10;55.30;;;;;;5031757;28;20029;-77
2023/09/09 11:50:43;;;;;;;8.70;6.00;;;26.20;54.50;;;;;;5031531;28;20394;-76
2023/09/09 11:53:11;;;;;;;14.68;7.50;;;26.20;54.60;;;;;;5047578;28;20105;-76
2023/09/09 11:55:37;;;;;;;9.88;6.43;;;26.10;54.00;;;;;;5028328;28;20516;-75
2023/09/09 11:58:03;;;;;;;7.43;6.68;;;26.20;53.40;;;;;;5030770;28;20022;-76
2023/09/09 12:00:29;;;;;;;8.23;6.68;;;26.30;55.30;;;;;;5038783;28;20546;-79
2023/09/09 12:02:54;;;;;;;10.23;7.78;;;26.30;55.60;;;;;;5031111;28;20017;-76
2023/09/09 12:05:21;;;;;;;9.73;7.55;;;26.30;54.70;;;;;;5030080;28;20431;-79
2023/09/09 12:07:47;;;;;;;8.18;7.35;;;26.40;54.10;;;;;;5030802;28;20053;-79
2023/09/09 12:10:14;;;;;;;13.18;8.00;;;26.50;56.50;;;;;;5034286;28;20103;-79
2023/09/09 12:12:47;;;;;;;9.48;8.27;;;26.50;56.20;;;;;;5087043;27;20111;-76
2023/09/09 12:15:14;;;;;;;10.23;8.55;;;26.50;54.90;;;;;;5032903;27;20029;-76
2023/09/09 12:17:40;;;;;;;10.23;9.20;;;26.40;54.80;;;;;;5030521;28;20024;-78
2023/09/09 12:20:08;;;;;;;10.90;9.40;;;26.40;55.80;;;;;;5030798;28;20108;-76
2023/09/09 12:22:47;;;;;;;12.15;8.77;;;26.50;55.60;;;;;;5027751;28;20025;-76
2023/09/09 12:25:32;;;;;;;12.95;9.40;;;26.40;55.90;;;;;;5021818;28;20083;-76
2023/09/09 12:27:58;;;;;;;10.07;9.02;;;26.30;55.60;;;;;;5033219;28;20466;-75
2023/09/09 12:30:41;;;;;;;9.57;8.68;;;26.30;55.90;;;;;;5028013;28;20056;-82
2023/09/09 12:33:12;;;;;;;9.93;8.93;;;26.20;55.70;;;;;;5022124;28;20482;-76